createdAt,value
2018-02-06T00:00:30.537Z,49.2
2018-02-06T00:01:31.921Z,49.3
2018-02-06T00:02:53.393Z,49.3
2018-02-06T00:03:54.780Z,49.2
2018-02-06T00:05:16.266Z,49.2
2018-02-06T00:06:17.650Z,49.3
2018-02-06T00:07:39.122Z,49.3
2018-02-06T00:08:40.506Z,49.3
2018-02-06T00:10:01.978Z,49.4
2018-02-06T00:11:03.362Z,49.4
2018-02-06T00:12:24.914Z,49.2
2018-02-06T00:13:26.298Z,49.2
2018-02-06T00:14:47.770Z,49.3
2018-02-06T00:15:49.154Z,49.4
2018-02-06T00:17:10.633Z,49.4
2018-02-06T00:18:12.018Z,49.6
2018-02-06T00:19:33.506Z,49.6
2018-02-06T00:20:34.890Z,49.6
2018-02-06T00:21:56.363Z,49.6
2018-02-06T00:22:57.745Z,49.3
2018-02-06T00:24:19.218Z,49.5
2018-02-06T00:25:20.602Z,49.3
2018-02-06T00:26:42.090Z,49.5
2018-02-06T00:27:43.474Z,49.5
2018-02-06T00:29:04.946Z,49.1
2018-02-06T00:30:06.330Z,49.3
2018-02-06T00:31:27.802Z,49.5
2018-02-06T00:32:29.186Z,49.6
2018-02-06T00:33:50.738Z,49.4
2018-02-06T00:34:52.122Z,49.3
2018-02-06T00:36:13.602Z,49.2
2018-02-06T00:37:14.986Z,49.4
2018-02-06T00:38:36.458Z,49.4
2018-02-06T00:39:37.876Z,49.4
2018-02-06T00:40:59.372Z,49.4
2018-02-06T00:42:00.754Z,49.5
2018-02-06T00:43:22.226Z,49.5
2018-02-06T00:44:23.612Z,49.5
2018-02-06T00:45:45.083Z,49.5
2018-02-06T00:46:46.467Z,49.4
2018-02-06T00:48:07.954Z,49.5
2018-02-06T00:49:09.339Z,49.5
2018-02-06T00:50:30.810Z,49.4
2018-02-06T00:51:32.197Z,49.1
2018-02-06T00:52:53.666Z,49.3
2018-02-06T00:53:55.051Z,49.3
2018-02-06T00:55:16.603Z,49.3
2018-02-06T00:56:17.987Z,49.3
2018-02-06T00:57:39.459Z,49.5
2018-02-06T00:58:40.842Z,49.4
2018-02-06T01:00:02.315Z,49.4
2018-02-06T01:01:03.700Z,49.5
2018-02-06T01:02:25.187Z,49.4
2018-02-06T01:03:26.571Z,49.2
2018-02-06T01:04:48.042Z,49.3
2018-02-06T01:05:49.429Z,49.5
2018-02-06T01:07:10.899Z,49.2
2018-02-06T01:08:12.283Z,49.2
2018-02-06T01:09:33.771Z,49.3
2018-02-06T01:10:35.157Z,49.4
2018-02-06T01:11:56.627Z,49.2
2018-02-06T01:12:58.011Z,49.2
2018-02-06T01:14:19.483Z,49.4
2018-02-06T01:15:20.867Z,49.5
2018-02-06T01:16:42.420Z,49.5
2018-02-06T01:17:43.803Z,49.4
2018-02-06T01:19:05.275Z,49.4
2018-02-06T01:20:06.659Z,49.2
2018-02-06T01:21:28.139Z,49.7
2018-02-06T01:22:29.523Z,49.5
2018-02-06T01:23:51.011Z,49.4
2018-02-06T01:24:52.395Z,49.4
2018-02-06T01:26:13.868Z,49.4
2018-02-06T01:27:15.252Z,49.4
2018-02-06T01:28:36.731Z,49.3
2018-02-06T01:29:38.115Z,49.4
2018-02-06T01:30:59.603Z,49.4
2018-02-06T01:32:00.987Z,49.4
2018-02-06T01:33:22.459Z,49.2
2018-02-06T01:34:23.843Z,49.4
2018-02-06T01:35:45.321Z,49.5
2018-02-06T01:36:46.700Z,49.2
2018-02-06T01:38:08.251Z,49.3
2018-02-06T01:39:09.635Z,49.4
2018-02-06T01:40:31.116Z,49.3
2018-02-06T01:41:32.499Z,49.2
2018-02-06T01:42:53.972Z,49.5
2018-02-06T01:43:55.356Z,49.2
2018-02-06T01:45:16.844Z,49.4
2018-02-06T01:46:18.228Z,49.3
2018-02-06T01:47:39.699Z,49.4
2018-02-06T01:48:41.084Z,49.6
2018-02-06T01:50:02.556Z,49.4
2018-02-06T01:51:03.947Z,49.6
2018-02-06T01:52:25.492Z,49.7
2018-02-06T01:53:26.876Z,49.7
2018-02-06T01:54:48.403Z,49.7
2018-02-06T01:55:49.708Z,49.8
2018-02-06T01:57:11.180Z,50.1
2018-02-06T01:58:12.564Z,50.1
2018-02-06T01:59:34.052Z,49.7
2018-02-06T02:00:35.436Z,49.7
2018-02-06T02:01:56.908Z,49.7
2018-02-06T02:02:58.291Z,49.7
2018-02-06T02:04:19.772Z,49.6
2018-02-06T02:05:21.157Z,49.5
2018-02-06T02:06:42.644Z,49.6
2018-02-06T02:07:44.028Z,49.5
2018-02-06T02:09:05.500Z,49.5
2018-02-06T02:10:06.885Z,49.7
2018-02-06T02:11:28.364Z,49.5
2018-02-06T02:12:29.748Z,49.6
2018-02-06T02:13:51.236Z,49.4
2018-02-06T02:14:52.621Z,49.4
2018-02-06T02:16:14.093Z,49.4
2018-02-06T02:17:15.476Z,49.5
2018-02-06T02:18:36.956Z,49.5
2018-02-06T02:19:38.341Z,49.4
2018-02-06T02:20:59.836Z,49.6
2018-02-06T02:22:01.220Z,49.5
2018-02-06T02:23:22.692Z,49.5
2018-02-06T02:24:24.077Z,49.5
2018-02-06T02:25:45.548Z,49.6
2018-02-06T02:26:46.933Z,49.6
2018-02-06T02:28:08.421Z,49.7
2018-02-06T02:29:09.805Z,49.7
2018-02-06T02:30:31.277Z,49.9
2018-02-06T02:31:32.661Z,50.0
2018-02-06T02:32:54.134Z,50.0
2018-02-06T02:33:55.517Z,50.0
2018-02-06T02:35:17.013Z,49.8
2018-02-06T02:36:18.397Z,50.0
2018-02-06T02:37:39.869Z,49.9
2018-02-06T02:38:41.253Z,50.0
2018-02-06T02:40:02.724Z,50.0
2018-02-06T02:41:04.109Z,50.2
